sensor_id;sensor_type;location;lat;lon;timestamp;pressure;altitude;pressure_sealevel;temperature;humidity
44148;BME280;29810;55.848;37.368;2022-12-24T00:01:17;98064.84;;;2.50;95.85
44148;BME280;29810;55.848;37.368;2022-12-24T00:04:18;98055.34;;;2.52;95.76
44148;BME280;29810;55.848;37.368;2022-12-24T00:07:20;98049.13;;;2.62;95.54
44148;BME280;29810;55.848;37.368;2022-12-24T00:10:21;98045.66;;;2.63;94.93
44148;BME280;29810;55.848;37.368;2022-12-24T00:13:23;98056.63;;;2.73;95.01
44148;BME280;29810;55.848;37.368;2022-12-24T00:16:25;98033.47;;;2.72;94.63
44148;BME280;29810;55.848;37.368;2022-12-24T00:19:26;98050.34;;;2.84;94.18
44148;BME280;29810;55.848;37.368;2022-12-24T00:22:28;98063.75;;;2.96;94.02
44148;BME280;29810;55.848;37.368;2022-12-24T00:25:29;98067.44;;;2.86;93.58
44148;BME280;29810;55.848;37.368;2022-12-24T00:28:31;98061.28;;;2.93;93.62
44148;BME280;29810;55.848;37.368;2022-12-24T00:31:32;98066.16;;;3.04;93.38
44148;BME280;29810;55.848;37.368;2022-12-24T00:34:37;98081.50;;;3.09;92.97
44148;BME280;29810;55.848;37.368;2022-12-24T00:37:39;98074.56;;;3.12;92.73
44148;BME280;29810;55.848;37.368;2022-12-24T00:40:40;98066.19;;;3.03;91.95
44148;BME280;29810;55.848;37.368;2022-12-24T00:43:42;98074.06;;;2.96;92.26
44148;BME280;29810;55.848;37.368;2022-12-24T00:46:43;98079.06;;;3.03;92.35
44148;BME280;29810;55.848;37.368;2022-12-24T00:49:45;98073.41;;;2.88;91.93
44148;BME280;29810;55.848;37.368;2022-12-24T00:52:46;98068.34;;;2.85;92.43
44148;BME280;29810;55.848;37.368;2022-12-24T00:55:48;98084.50;;;2.92;92.68
44148;BME280;29810;55.848;37.368;2022-12-24T00:58:50;98082.53;;;3.02;92.62
44148;BME280;29810;55.848;37.368;2022-12-24T01:01:51;98076.53;;;3.01;92.29
44148;BME280;29810;55.848;37.368;2022-12-24T01:04:53;98079.22;;;2.96;92.12
44148;BME280;29810;55.848;37.368;2022-12-24T01:08:13;98058.06;;;2.84;92.31
44148;BME280;29810;55.848;37.368;2022-12-24T01:11:15;98081.00;;;2.94;92.50
44148;BME280;29810;55.848;37.368;2022-12-24T01:14:17;98074.06;;;2.96;92.42
44148;BME280;29810;55.848;37.368;2022-12-24T01:17:18;98069.09;;;2.90;92.47
44148;BME280;29810;55.848;37.368;2022-12-24T01:20:20;98071.06;;;2.79;92.82
44148;BME280;29810;55.848;37.368;2022-12-24T01:23:21;98066.75;;;2.79;93.14
44148;BME280;29810;55.848;37.368;2022-12-24T01:26:23;98049.69;;;2.75;93.37
44148;BME280;29810;55.848;37.368;2022-12-24T01:29:24;98062.22;;;2.89;93.20
44148;BME280;29810;55.848;37.368;2022-12-24T01:32:26;98065.78;;;2.85;93.07
44148;BME280;29810;55.848;37.368;2022-12-24T01:35:27;98060.13;;;2.69;93.13
44148;BME280;29810;55.848;37.368;2022-12-24T01:38:29;98063.38;;;2.77;93.40
44148;BME280;29810;55.848;37.368;2022-12-24T01:41:31;98068.31;;;2.87;93.43
44148;BME280;29810;55.848;37.368;2022-12-24T01:44:52;98076.62;;;2.98;93.04
44148;BME280;29810;55.848;37.368;2022-12-24T01:47:54;98070.75;;;2.91;92.85
44148;BME280;29810;55.848;37.368;2022-12-24T01:54:48;98071.16;;;3.10;93.05
44148;BME280;29810;55.848;37.368;2022-12-24T01:57:54;98080.63;;;3.10;92.99
44148;BME280;29810;55.848;37.368;2022-12-24T02:00:57;98086.69;;;3.07;92.43
44148;BME280;29810;55.848;37.368;2022-12-24T02:04:00;98084.06;;;3.09;92.30
44148;BME280;29810;55.848;37.368;2022-12-24T02:07:05;98071.34;;;3.03;92.31
44148;BME280;29810;55.848;37.368;2022-12-24T02:10:09;98086.75;;;3.04;92.04
44148;BME280;29810;55.848;37.368;2022-12-24T02:13:11;98083.53;;;2.96;92.26
44148;BME280;29810;55.848;37.368;2022-12-24T02:16:48;98092.69;;;3.08;92.44
44148;BME280;29810;55.848;37.368;2022-12-24T02:23:40;98107.22;;;3.10;91.88
44148;BME280;29810;55.848;37.368;2022-12-24T02:27:13;98104.38;;;3.21;92.39
44148;BME280;29810;55.848;37.368;2022-12-24T02:30:22;98100.25;;;3.14;92.22
44148;BME280;29810;55.848;37.368;2022-12-24T02:33:47;98103.06;;;3.03;92.32
44148;BME280;29810;55.848;37.368;2022-12-24T02:37:01;98105.47;;;3.11;93.26
44148;BME280;29810;55.848;37.368;2022-12-24T02:40:50;98098.38;;;3.21;93.39
44148;BME280;29810;55.848;37.368;2022-12-24T02:43:54;98106.91;;;3.23;92.85
44148;BME280;29810;55.848;37.368;2022-12-24T02:46:58;98106.38;;;3.10;92.32
44148;BME280;29810;55.848;37.368;2022-12-24T02:50:03;98097.00;;;3.07;92.22
44148;BME280;29810;55.848;37.368;2022-12-24T02:53:08;98094.66;;;2.96;92.33
44148;BME280;29810;55.848;37.368;2022-12-24T03:00:06;98099.38;;;3.15;92.92
44148;BME280;29810;55.848;37.368;2022-12-24T03:13:14;98093.47;;;3.11;91.94
44148;BME280;29810;55.848;37.368;2022-12-24T03:16:22;98088.31;;;3.11;91.90
44148;BME280;29810;55.848;37.368;2022-12-24T03:19:25;98086.53;;;3.13;91.82
44148;BME280;29810;55.848;37.368;2022-12-24T03:22:29;98092.59;;;3.11;91.74
44148;BME280;29810;55.848;37.368;2022-12-24T03:25:32;98084.91;;;3.09;91.61
44148;BME280;29810;55.848;37.368;2022-12-24T03:28:37;98083.13;;;3.13;91.64
44148;BME280;29810;55.848;37.368;2022-12-24T03:31:45;98080.63;;;3.10;91.52
44148;BME280;29810;55.848;37.368;2022-12-24T03:34:47;98089.13;;;3.12;91.60
44148;BME280;29810;55.848;37.368;2022-12-24T03:37:48;98090.84;;;3.13;91.52
44148;BME280;29810;55.848;37.368;2022-12-24T03:40:50;98096.81;;;3.15;91.60
44148;BME280;29810;55.848;37.368;2022-12-24T03:43:52;98088.50;;;3.04;91.56
44148;BME280;29810;55.848;37.368;2022-12-24T03:46:53;98085.91;;;3.04;91.86
44148;BME280;29810;55.848;37.368;2022-12-24T03:49:55;98089.28;;;3.06;91.84
44148;BME280;29810;55.848;37.368;2022-12-24T03:52:57;98078.16;;;3.05;91.76
44148;BME280;29810;55.848;37.368;2022-12-24T03:55:58;98085.84;;;3.07;91.56
44148;BME280;29810;55.848;37.368;2022-12-24T03:59:00;98088.53;;;3.02;91.87
44148;BME280;29810;55.848;37.368;2022-12-24T04:02:01;98086.69;;;3.07;91.93
44148;BME280;29810;55.848;37.368;2022-12-24T04:05:03;98091.06;;;3.04;91.92
44148;BME280;29810;55.848;37.368;2022-12-24T04:08:05;98084.31;;;3.00;91.91
44148;BME280;29810;55.848;37.368;2022-12-24T04:11:09;98079.91;;;3.03;92.07
44148;BME280;29810;55.848;37.368;2022-12-24T04:14:10;98085.72;;;3.11;92.21
44148;BME280;29810;55.848;37.368;2022-12-24T04:17:12;98086.00;;;3.01;91.89
44148;BME280;29810;55.848;37.368;2022-12-24T04:20:13;98086.94;;;2.98;92.08
44148;BME280;29810;55.848;37.368;2022-12-24T04:23:15;98081.03;;;2.91;92.19
44148;BME280;29810;55.848;37.368;2022-12-24T04:26:17;98083.62;;;2.91;92.39
44148;BME280;29810;55.848;37.368;2022-12-24T04:29:19;98078.47;;;2.91;92.33
44148;BME280;29810;55.848;37.368;2022-12-24T04:32:20;98080.34;;;2.85;92.28
44148;BME280;29810;55.848;37.368;2022-12-24T04:35:22;98072.59;;;2.86;92.25
44148;BME280;29810;55.848;37.368;2022-12-24T04:38:23;98064.00;;;2.87;92.33
44148;BME280;29810;55.848;37.368;2022-12-24T04:41:25;98052.91;;;2.85;92.28
44148;BME280;29810;55.848;37.368;2022-12-24T04:44:26;98051.91;;;2.91;92.28
44148;BME280;29810;55.848;37.368;2022-12-24T04:47:28;98055.19;;;2.96;92.10
44148;BME280;29810;55.848;37.368;2022-12-24T04:50:29;98061.28;;;2.93;91.96
44148;BME280;29810;55.848;37.368;2022-12-24T04:53:32;98060.44;;;2.91;91.79
44148;BME280;29810;55.848;37.368;2022-12-24T04:56:33;98063.84;;;2.93;91.82
44148;BME280;29810;55.848;37.368;2022-12-24T04:59:35;98062.94;;;2.96;91.75
44148;BME280;29810;55.848;37.368;2022-12-24T05:02:36;98060.44;;;2.91;91.79
44148;BME280;29810;55.848;37.368;2022-12-24T05:05:38;98054.47;;;2.91;91.87
44148;BME280;29810;55.848;37.368;2022-12-24T05:08:40;98062.50;;;2.78;91.67
44148;BME280;29810;55.848;37.368;2022-12-24T05:11:41;98069.12;;;2.87;92.23
44148;BME280;29810;55.848;37.368;2022-12-24T05:14:43;98057.87;;;2.93;92.31
44148;BME280;29810;55.848;37.368;2022-12-24T05:17:45;98054.44;;;2.92;92.06
44148;BME280;29810;55.848;37.368;2022-12-24T05:20:47;98059.81;;;2.83;92.16
44148;BME280;29810;55.848;37.368;2022-12-24T05:23:49;98051.97;;;2.88;92.40
44148;BME280;29810;55.848;37.368;2022-12-24T05:27:09;98044.13;;;2.92;92.51
44148;BME280;29810;55.848;37.368;2022-12-24T05:30:11;98036.16;;;3.02;92.21
44148;BME280;29810;55.848;37.368;2022-12-24T05:33:12;98043.84;;;3.05;91.96
44148;BME280;29810;55.848;37.368;2022-12-24T05:36:14;98037.00;;;3.04;91.56
44148;BME280;29810;55.848;37.368;2022-12-24T05:39:17;98031.34;;;2.89;91.69
44148;BME280;29810;55.848;37.368;2022-12-24T05:42:18;98033.97;;;2.86;92.00
44148;BME280;29810;55.848;37.368;2022-12-24T05:45:20;98041.63;;;2.89;92.13
44148;BME280;29810;55.848;37.368;2022-12-24T05:48:21;98040.66;;;2.93;92.20
44148;BME280;29810;55.848;37.368;2022-12-24T05:51:23;98047.47;;;2.96;92.17
44148;BME280;29810;55.848;37.368;2022-12-24T05:54:24;98027.94;;;2.87;92.19
44148;BME280;29810;55.848;37.368;2022-12-24T05:57:26;98025.13;;;2.96;92.10
44148;BME280;29810;55.848;37.368;2022-12-24T06:00:30;98031.78;;;3.05;91.82
44148;BME280;29810;55.848;37.368;2022-12-24T06:03:32;98027.56;;;3.03;91.71
44148;BME280;29810;55.848;37.368;2022-12-24T06:06:34;98031.09;;;2.98;91.97
44148;BME280;29810;55.848;37.368;2022-12-24T06:09:36;98027.81;;;2.93;92.13
44148;BME280;29810;55.848;37.368;2022-12-24T06:12:37;98023.56;;;2.91;92.20
44148;BME280;29810;55.848;37.368;2022-12-24T06:15:39;98034.75;;;2.90;92.39
44148;BME280;29810;55.848;37.368;2022-12-24T06:18:41;98033.09;;;2.87;92.41
44148;BME280;29810;55.848;37.368;2022-12-24T06:21:43;98024.72;;;2.79;92.45
44148;BME280;29810;55.848;37.368;2022-12-24T06:24:44;98029.63;;;2.88;92.61
44148;BME280;29810;55.848;37.368;2022-12-24T06:27:46;98039.94;;;2.88;92.65
44148;BME280;29810;55.848;37.368;2022-12-24T06:30:49;98027.87;;;2.90;92.77
44148;BME280;29810;55.848;37.368;2022-12-24T06:33:51;98021.78;;;2.94;92.91
44148;BME280;29810;55.848;37.368;2022-12-24T06:36:53;98021.63;;;2.99;92.93
44148;BME280;29810;55.848;37.368;2022-12-24T06:39:55;98021.03;;;2.89;93.12
44148;BME280;29810;55.848;37.368;2022-12-24T06:42:56;98020.06;;;2.93;93.35
44148;BME280;29810;55.848;37.368;2022-12-24T06:45:58;98017.69;;;2.86;93.24
44148;BME280;29810;55.848;37.368;2022-12-24T06:49:00;98016.75;;;2.88;93.41
44148;BME280;29810;55.848;37.368;2022-12-24T06:52:02;98024.25;;;2.97;93.54
44148;BME280;29810;55.848;37.368;2022-12-24T06:55:06;98012.50;;;2.87;93.48
44148;BME280;29810;55.848;37.368;2022-12-24T06:58:08;98021.88;;;2.90;93.61
44148;BME280;29810;55.848;37.368;2022-12-24T07:01:15;98024.44;;;2.90;93.76
44148;BME280;29810;55.848;37.368;2022-12-24T07:04:18;98031.25;;;2.92;93.94
44148;BME280;29810;55.848;37.368;2022-12-24T07:07:19;98025.31;;;2.90;93.86
44148;BME280;29810;55.848;37.368;2022-12-24T07:10:21;98025.97;;;2.98;93.91
44148;BME280;29810;55.848;37.368;2022-12-24T07:13:23;98027.66;;;3.00;93.74
44148;BME280;29810;55.848;37.368;2022-12-24T07:16:24;98023.25;;;3.03;93.47
44148;BME280;29810;55.848;37.368;2022-12-24T07:19:26;98016.50;;;2.99;93.10
44148;BME280;29810;55.848;37.368;2022-12-24T07:22:28;98025.81;;;3.03;93.19
44148;BME280;29810;55.848;37.368;2022-12-24T07:25:29;98019.25;;;2.91;93.19
44148;BME280;29810;55.848;37.368;2022-12-24T07:28:31;98031.03;;;3.02;93.16
44148;BME280;29810;55.848;37.368;2022-12-24T07:31:33;98026.59;;;3.07;92.99
44148;BME280;29810;55.848;37.368;2022-12-24T07:34:34;98029.25;;;3.04;92.69
44148;BME280;29810;55.848;37.368;2022-12-24T07:37:36;98037.00;;;3.04;92.88
44148;BME280;29810;55.848;37.368;2022-12-24T07:40:38;98030.09;;;3.04;92.96
44148;BME280;29810;55.848;37.368;2022-12-24T07:43:39;98037.13;;;2.97;92.85
44148;BME280;29810;55.848;37.368;2022-12-24T07:46:41;98033.72;;;2.97;92.84
44148;BME280;29810;55.848;37.368;2022-12-24T07:49:43;98030.97;;;3.05;93.01
44148;BME280;29810;55.848;37.368;2022-12-24T07:52:45;98026.87;;;2.96;92.45
44148;BME280;29810;55.848;37.368;2022-12-24T07:55:46;98002.16;;;2.89;92.52
44148;BME280;29810;55.848;37.368;2022-12-24T07:58:51;98030.06;;;3.06;92.17
44148;BME280;29810;55.848;37.368;2022-12-24T08:01:53;98026.72;;;3.02;92.15
44148;BME280;29810;55.848;37.368;2022-12-24T08:04:55;97998.84;;;2.85;92.37
44148;BME280;29810;55.848;37.368;2022-12-24T08:07:56;98030.12;;;3.03;92.16
44148;BME280;29810;55.848;37.368;2022-12-24T08:11:00;98027.72;;;2.96;91.83
44148;BME280;29810;55.848;37.368;2022-12-24T08:14:02;98027.06;;;2.88;91.32
44148;BME280;29810;55.848;37.368;2022-12-24T08:17:04;98028.72;;;2.91;91.41
44148;BME280;29810;55.848;37.368;2022-12-24T08:20:06;98023.56;;;2.91;91.22
44148;BME280;29810;55.848;37.368;2022-12-24T08:23:08;98029.56;;;2.91;91.02
44148;BME280;29810;55.848;37.368;2022-12-24T08:26:11;98033.06;;;2.89;91.33
44148;BME280;29810;55.848;37.368;2022-12-24T08:29:12;98028.81;;;2.88;91.17
44148;BME280;29810;55.848;37.368;2022-12-24T08:32:14;98029.09;;;2.75;91.25
44148;BME280;29810;55.848;37.368;2022-12-24T08:35:16;98028.13;;;2.79;91.42
44148;BME280;29810;55.848;37.368;2022-12-24T08:38:17;98020.34;;;2.83;91.30
44148;BME280;29810;55.848;37.368;2022-12-24T08:41:19;98024.50;;;2.88;91.18
44148;BME280;29810;55.848;37.368;2022-12-24T08:44:21;98017.53;;;2.92;91.16
44148;BME280;29810;55.848;37.368;2022-12-24T08:47:22;98024.34;;;2.94;91.08
44148;BME280;29810;55.848;37.368;2022-12-24T08:50:24;97994.97;;;2.67;90.84
44148;BME280;29810;55.848;37.368;2022-12-24T08:53:26;98015.06;;;2.87;90.78
44148;BME280;29810;55.848;37.368;2022-12-24T08:56:27;98020.19;;;2.89;90.69
44148;BME280;29810;55.848;37.368;2022-12-24T08:59:29;98020.13;;;2.92;90.43
44148;BME280;29810;55.848;37.368;2022-12-24T09:02:31;98020.94;;;2.92;90.38
44148;BME280;29810;55.848;37.368;2022-12-24T09:05:32;98007.53;;;2.81;90.12
44148;BME280;29810;55.848;37.368;2022-12-24T09:08:34;98015.66;;;2.98;90.25
44148;BME280;29810;55.848;37.368;2022-12-24T09:11:36;98012.03;;;3.06;90.11
44148;BME280;29810;55.848;37.368;2022-12-24T09:14:37;98010.59;;;2.94;89.94
44148;BME280;29810;55.848;37.368;2022-12-24T09:17:39;98005.59;;;2.89;90.06
44148;BME280;29810;55.848;37.368;2022-12-24T09:20:41;97997.69;;;2.97;90.40
44148;BME280;29810;55.848;37.368;2022-12-24T09:23:44;98006.19;;;3.01;90.65
44148;BME280;29810;55.848;37.368;2022-12-24T09:26:47;97998.66;;;2.93;90.44
44148;BME280;29810;55.848;37.368;2022-12-24T09:29:49;97998.16;;;2.78;90.59
44148;BME280;29810;55.848;37.368;2022-12-24T09:32:51;97997.97;;;2.85;91.17
44148;BME280;29810;55.848;37.368;2022-12-24T09:35:53;97997.97;;;2.85;91.34
44148;BME280;29810;55.848;37.368;2022-12-24T09:38:54;98002.19;;;2.87;91.40
44148;BME280;29810;55.848;37.368;2022-12-24T09:42:06;97994.38;;;2.92;91.09
44148;BME280;29810;55.848;37.368;2022-12-24T09:45:16;97998.84;;;2.85;90.65
44148;BME280;29810;55.848;37.368;2022-12-24T09:48:23;98004.72;;;2.89;90.89
44148;BME280;29810;55.848;37.368;2022-12-24T09:51:46;97997.91;;;2.88;90.51
44148;BME280;29810;55.848;37.368;2022-12-24T09:54:57;97997.59;;;3.00;91.16
44148;BME280;29810;55.848;37.368;2022-12-24T09:58:04;98004.44;;;3.01;90.70
44148;BME280;29810;55.848;37.368;2022-12-24T10:01:11;97997.00;;;2.90;90.63
44148;BME280;29810;55.848;37.368;2022-12-24T10:04:17;98000.44;;;2.89;90.86
44148;BME280;29810;55.848;37.368;2022-12-24T10:07:47;98011.50;;;2.93;90.82
44148;BME280;29810;55.848;37.368;2022-12-24T10:10:54;98005.94;;;3.08;91.28
44148;BME280;29810;55.848;37.368;2022-12-24T10:14:10;98007.09;;;2.96;90.48
44148;BME280;29810;55.848;37.368;2022-12-24T10:17:44;98003.06;;;2.86;90.51
44148;BME280;29810;55.848;37.368;2022-12-24T10:20:52;98005.50;;;2.92;90.60
44148;BME280;29810;55.848;37.368;2022-12-24T10:24:11;98001.56;;;2.79;90.50
44148;BME280;29810;55.848;37.368;2022-12-24T10:27:14;98002.19;;;2.87;90.45
44148;BME280;29810;55.848;37.368;2022-12-24T10:30:21;97993.75;;;2.82;90.03
44148;BME280;29810;55.848;37.368;2022-12-24T10:33:37;97996.75;;;3.00;89.71
44148;BME280;29810;55.848;37.368;2022-12-24T10:36:41;97994.03;;;3.04;89.41
44148;BME280;29810;55.848;37.368;2022-12-24T10:39:42;97987.47;;;2.92;89.57
44148;BME280;29810;55.848;37.368;2022-12-24T10:42:44;97993.34;;;2.97;89.45
44148;BME280;29810;55.848;37.368;2022-12-24T10:45:49;97990.06;;;2.92;89.13
44148;BME280;29810;55.848;37.368;2022-12-24T10:48:59;97993.62;;;2.87;89.50
44148;BME280;29810;55.848;37.368;2022-12-24T10:52:05;97998.78;;;2.87;89.36
44148;BME280;29810;55.848;37.368;2022-12-24T10:55:22;97996.59;;;2.71;89.31
44148;BME280;29810;55.848;37.368;2022-12-24T10:58:24;97998.34;;;2.71;90.38
44148;BME280;29810;55.848;37.368;2022-12-24T11:01:47;98004.41;;;2.67;90.34
44148;BME280;29810;55.848;37.368;2022-12-24T11:04:50;98008.75;;;2.64;90.70
44148;BME280;29810;55.848;37.368;2022-12-24T11:08:04;98015.06;;;2.53;90.78
44148;BME280;29810;55.848;37.368;2022-12-24T11:11:12;98012.34;;;2.59;91.08
44148;BME280;29810;55.848;37.368;2022-12-24T11:14:16;98019.94;;;2.63;91.23
44148;BME280;29810;55.848;37.368;2022-12-24T11:17:20;98014.88;;;2.60;90.99
44148;BME280;29810;55.848;37.368;2022-12-24T11:20:26;98017.19;;;2.71;91.18
44148;BME280;29810;55.848;37.368;2022-12-24T11:23:28;98025.59;;;2.78;90.69
44148;BME280;29810;55.848;37.368;2022-12-24T11:26:30;98031.94;;;2.64;90.53
44148;BME280;29810;55.848;37.368;2022-12-24T11:29:32;98023.59;;;2.53;90.62
44148;BME280;29810;55.848;37.368;2022-12-24T11:32:34;98040.13;;;2.44;90.71
44148;BME280;29810;55.848;37.368;2022-12-24T11:35:41;98044.19;;;2.53;91.59
44148;BME280;29810;55.848;37.368;2022-12-24T11:38:51;98015.03;;;2.15;91.87
44148;BME280;29810;55.848;37.368;2022-12-24T11:41:54;98047.22;;;2.33;92.60
44148;BME280;29810;55.848;37.368;2022-12-24T11:44:56;98046.31;;;2.36;92.40
44148;BME280;29810;55.848;37.368;2022-12-24T11:47:59;98050.59;;;2.35;92.24
44148;BME280;29810;55.848;37.368;2022-12-24T11:51:04;98060.88;;;2.37;92.40
44148;BME280;29810;55.848;37.368;2022-12-24T11:54:16;98054.81;;;2.39;92.69
44148;BME280;29810;55.848;37.368;2022-12-24T11:57:21;98059.59;;;2.56;93.54
44148;BME280;29810;55.848;37.368;2022-12-24T12:00:26;98060.25;;;2.64;92.63
44148;BME280;29810;55.848;37.368;2022-12-24T12:03:34;98066.03;;;2.73;91.81
44148;BME280;29810;55.848;37.368;2022-12-24T12:06:46;98069.22;;;2.84;91.91
44148;BME280;29810;55.848;37.368;2022-12-24T12:09:52;98076.81;;;2.89;91.52
44148;BME280;29810;55.848;37.368;2022-12-24T12:12:59;98079.59;;;2.81;91.24
44148;BME280;29810;55.848;37.368;2022-12-24T12:16:20;98080.56;;;2.75;91.20
44148;BME280;29810;55.848;37.368;2022-12-24T12:19:25;98086.94;;;2.98;91.68
44148;BME280;29810;55.848;37.368;2022-12-24T12:26:06;98102.47;;;2.93;90.91
44148;BME280;29810;55.848;37.368;2022-12-24T12:29:27;98090.41;;;2.58;90.77
44148;BME280;29810;55.848;37.368;2022-12-24T12:36:09;98104.53;;;2.40;91.92
44148;BME280;29810;55.848;37.368;2022-12-24T12:39:13;98109.09;;;2.27;92.20
44148;BME280;29810;55.848;37.368;2022-12-24T12:42:34;98121.19;;;2.22;92.49
44148;BME280;29810;55.848;37.368;2022-12-24T12:46:15;98127.06;;;2.28;93.25
44148;BME280;29810;55.848;37.368;2022-12-24T12:56:20;98132.66;;;2.07;93.27
44148;BME280;29810;55.848;37.368;2022-12-24T12:59:37;98142.94;;;2.07;94.28
44148;BME280;29810;55.848;37.368;2022-12-24T13:12:59;98154.09;;;2.06;94.70
44148;BME280;29810;55.848;37.368;2022-12-24T13:19:35;98163.44;;;2.10;95.07
44148;BME280;29810;55.848;37.368;2022-12-24T13:22:49;98168.47;;;2.16;94.75
44148;BME280;29810;55.848;37.368;2022-12-24T13:25:56;98174.56;;;2.10;94.15
44148;BME280;29810;55.848;37.368;2022-12-24T13:29:33;98167.16;;;1.93;94.35
44148;BME280;29810;55.848;37.368;2022-12-24T13:32:55;98189.16;;;2.10;94.95
44148;BME280;29810;55.848;37.368;2022-12-24T13:35:57;98191.72;;;2.10;94.80
44148;BME280;29810;55.848;37.368;2022-12-24T13:38:59;98192.13;;;2.34;94.56
44148;BME280;29810;55.848;37.368;2022-12-24T13:42:01;98199.38;;;2.14;93.91
44148;BME280;29810;55.848;37.368;2022-12-24T13:48:32;98199.44;;;2.10;94.95
44148;BME280;29810;55.848;37.368;2022-12-24T13:51:34;98200.28;;;2.12;94.64
44148;BME280;29810;55.848;37.368;2022-12-24T13:54:39;98197.63;;;2.15;94.53
44148;BME280;29810;55.848;37.368;2022-12-24T13:57:54;98199.28;;;2.18;94.52
44148;BME280;29810;55.848;37.368;2022-12-24T14:01:04;98206.22;;;2.14;94.37
44148;BME280;29810;55.848;37.368;2022-12-24T14:04:08;98213.78;;;2.22;94.56
44148;BME280;29810;55.848;37.368;2022-12-24T14:07:18;98227.44;;;2.25;94.38
44148;BME280;29810;55.848;37.368;2022-12-24T14:10:39;98225.37;;;2.43;94.47
44148;BME280;29810;55.848;37.368;2022-12-24T14:16:50;98228.56;;;2.98;93.43
44148;BME280;29810;55.848;37.368;2022-12-24T14:20:00;98224.66;;;3.19;93.23
44148;BME280;29810;55.848;37.368;2022-12-24T14:23:05;98249.56;;;3.17;93.56
44148;BME280;29810;55.848;37.368;2022-12-24T14:26:23;98236.53;;;3.25;93.55
44148;BME280;29810;55.848;37.368;2022-12-24T14:29:31;98251.69;;;3.39;93.36
44148;BME280;29810;55.848;37.368;2022-12-24T14:32:37;98261.81;;;3.45;92.92
44148;BME280;29810;55.848;37.368;2022-12-24T14:35:39;98266.28;;;3.38;91.67
44148;BME280;29810;55.848;37.368;2022-12-24T14:38:42;98277.38;;;3.42;90.95
44148;BME280;29810;55.848;37.368;2022-12-24T14:41:52;98275.81;;;3.35;91.39
44148;BME280;29810;55.848;37.368;2022-12-24T14:51:55;98279.81;;;3.09;91.33
44148;BME280;29810;55.848;37.368;2022-12-24T14:55:30;98285.09;;;3.03;92.16
44148;BME280;29810;55.848;37.368;2022-12-24T14:58:36;98300.41;;;3.09;91.59
44148;BME280;29810;55.848;37.368;2022-12-24T15:01:40;98285.59;;;2.78;91.21
44148;BME280;29810;55.848;37.368;2022-12-24T15:04:41;98299.97;;;2.88;91.71
44148;BME280;29810;55.848;37.368;2022-12-24T15:07:52;98299.75;;;3.01;91.66
44148;BME280;29810;55.848;37.368;2022-12-24T15:10:59;98308.50;;;2.92;91.64
44148;BME280;29810;55.848;37.368;2022-12-24T15:14:02;98314.69;;;2.83;91.71
44148;BME280;29810;55.848;37.368;2022-12-24T15:17:05;98319.81;;;2.83;92.26
44148;BME280;29810;55.848;37.368;2022-12-24T15:20:14;98315.28;;;2.96;91.63
44148;BME280;29810;55.848;37.368;2022-12-24T15:23:19;98327.22;;;3.00;91.90
44148;BME280;29810;55.848;37.368;2022-12-24T15:26:25;98317.94;;;2.93;91.69
44148;BME280;29810;55.848;37.368;2022-12-24T15:29:32;98325.63;;;2.94;92.16
44148;BME280;29810;55.848;37.368;2022-12-24T15:32:34;98322.38;;;2.85;91.43
44148;BME280;29810;55.848;37.368;2022-12-24T15:38:44;98325.72;;;2.88;92.09
44148;BME280;29810;55.848;37.368;2022-12-24T15:41:48;98327.59;;;2.81;91.26
44148;BME280;29810;55.848;37.368;2022-12-24T15:45:16;98333.44;;;2.88;90.53
44148;BME280;29810;55.848;37.368;2022-12-24T15:48:27;98327.13;;;3.05;91.23
44148;BME280;29810;55.848;37.368;2022-12-24T15:51:33;98344.00;;;3.18;90.96
44148;BME280;29810;55.848;37.368;2022-12-24T15:54:35;98341.56;;;3.12;90.59
44148;BME280;29810;55.848;37.368;2022-12-24T15:57:37;98351.81;;;3.15;90.96
44148;BME280;29810;55.848;37.368;2022-12-24T16:00:38;98337.19;;;3.15;90.87
44148;BME280;29810;55.848;37.368;2022-12-24T16:03:55;98352.66;;;3.15;90.55
44148;BME280;29810;55.848;37.368;2022-12-24T16:07:00;98349.03;;;3.24;90.09
44148;BME280;29810;55.848;37.368;2022-12-24T16:10:02;98364.97;;;3.01;89.54
44148;BME280;29810;55.848;37.368;2022-12-24T16:13:27;98370.84;;;3.08;90.13
44148;BME280;29810;55.848;37.368;2022-12-24T16:16:39;98368.06;;;3.17;91.25
44148;BME280;29810;55.848;37.368;2022-12-24T16:19:46;98379.84;;;3.29;91.24
44148;BME280;29810;55.848;37.368;2022-12-24T16:22:49;98391.03;;;3.29;90.65
44148;BME280;29810;55.848;37.368;2022-12-24T16:25:51;98382.38;;;3.30;90.29
44148;BME280;29810;55.848;37.368;2022-12-24T16:28:55;98396.00;;;3.39;91.06
44148;BME280;29810;55.848;37.368;2022-12-24T16:31:58;98400.50;;;3.27;90.33
44148;BME280;29810;55.848;37.368;2022-12-24T16:35:01;98408.37;;;3.20;89.67
44148;BME280;29810;55.848;37.368;2022-12-24T16:38:04;98412.16;;;3.02;89.03
44148;BME280;29810;55.848;37.368;2022-12-24T16:41:06;98415.09;;;2.83;89.46
44148;BME280;29810;55.848;37.368;2022-12-24T16:44:07;98415.94;;;2.82;89.87
44148;BME280;29810;55.848;37.368;2022-12-24T16:47:33;98421.00;;;2.88;90.09
44148;BME280;29810;55.848;37.368;2022-12-24T16:50:35;98431.44;;;2.80;88.56
44148;BME280;29810;55.848;37.368;2022-12-24T16:53:36;98431.94;;;2.51;88.89
44148;BME280;29810;55.848;37.368;2022-12-24T16:56:41;98431.44;;;2.29;89.11
44148;BME280;29810;55.848;37.368;2022-12-24T16:59:43;98437.34;;;2.36;89.67
44148;BME280;29810;55.848;37.368;2022-12-24T17:02:46;98439.75;;;2.45;89.64
44148;BME280;29810;55.848;37.368;2022-12-24T17:05:48;98447.50;;;2.45;89.29
44148;BME280;29810;55.848;37.368;2022-12-24T17:08:49;98457.78;;;2.45;89.06
44148;BME280;29810;55.848;37.368;2022-12-24T17:11:51;98448.34;;;2.44;88.64
44148;BME280;29810;55.848;37.368;2022-12-24T17:14:52;98461.94;;;2.52;88.95
44148;BME280;29810;55.848;37.368;2022-12-24T17:17:55;98444.91;;;2.45;88.47
44148;BME280;29810;55.848;37.368;2022-12-24T17:20:57;98457.78;;;2.45;87.97
44148;BME280;29810;55.848;37.368;2022-12-24T17:24:00;98460.41;;;2.42;88.08
44148;BME280;29810;55.848;37.368;2022-12-24T17:27:01;98468.84;;;2.50;88.07